Terminal Aerodrome Forecast
Issued by NWS Mt. Holly, NJ

Home | Current Version | Previous Version | Text Only | Print | Product List | Glossary On
Versions: 1 2 3 4 5 6 7 8 9 10 11 12 13 14 15 16 17 18 19 20
701
FTUS41 KPHI 181124
TAFTTN
TAF
KTTN 181124Z 1812/1912 35006KT 1 1/2SM BR OVC003
     FM181300 36007KT 3SM BR VCSH BKN005 OVC015
     FM181600 34009G16KT P6SM BKN025
     FM182200 36006KT P6SM BKN040
     FM190900 31003KT P6SM SCT040=

USA.gov is the U.S. government's official web portal to all federal, state and local government web resources and services.